sensor_id;sensor_type;location;lat;lon;timestamp;P1;durP1;ratioP1;P2;durP2;ratioP2
6205;SDS011;3136;48.788;9.772;2022-12-08T00:01:35;23.57;;;10.87;;
6205;SDS011;3136;48.788;9.772;2022-12-08T00:04:01;22.87;;;11.43;;
6205;SDS011;3136;48.788;9.772;2022-12-08T00:06:35;21.40;;;11.23;;
6205;SDS011;3136;48.788;9.772;2022-12-08T00:09:28;20.73;;;10.83;;
6205;SDS011;3136;48.788;9.772;2022-12-08T00:12:04;21.30;;;11.50;;
6205;SDS011;3136;48.788;9.772;2022-12-08T00:17:01;24.80;;;11.60;;
6205;SDS011;3136;48.788;9.772;2022-12-08T00:19:27;21.40;;;11.43;;
6205;SDS011;3136;48.788;9.772;2022-12-08T00:21:53;22.03;;;11.50;;
6205;SDS011;3136;48.788;9.772;2022-12-08T00:24:20;22.27;;;11.57;;
6205;SDS011;3136;48.788;9.772;2022-12-08T00:26:46;24.23;;;11.63;;
6205;SDS011;3136;48.788;9.772;2022-12-08T00:29:12;18.57;;;10.90;;
6205;SDS011;3136;48.788;9.772;2022-12-08T00:31:38;22.77;;;11.47;;
6205;SDS011;3136;48.788;9.772;2022-12-08T00:34:04;21.07;;;11.40;;
6205;SDS011;3136;48.788;9.772;2022-12-08T00:36:30;22.17;;;11.67;;
6205;SDS011;3136;48.788;9.772;2022-12-08T00:38:56;21.07;;;10.87;;
6205;SDS011;3136;48.788;9.772;2022-12-08T00:41:22;25.87;;;11.63;;
6205;SDS011;3136;48.788;9.772;2022-12-08T00:44:09;21.30;;;10.80;;
6205;SDS011;3136;48.788;9.772;2022-12-08T00:46:37;26.40;;;11.57;;
6205;SDS011;3136;48.788;9.772;2022-12-08T00:49:02;22.63;;;11.17;;
6205;SDS011;3136;48.788;9.772;2022-12-08T00:51:29;25.23;;;11.33;;
6205;SDS011;3136;48.788;9.772;2022-12-08T00:53:55;20.40;;;10.80;;
6205;SDS011;3136;48.788;9.772;2022-12-08T00:56:21;22.77;;;11.53;;
6205;SDS011;3136;48.788;9.772;2022-12-08T00:58:47;22.87;;;11.77;;
6205;SDS011;3136;48.788;9.772;2022-12-08T01:01:13;22.13;;;11.53;;
6205;SDS011;3136;48.788;9.772;2022-12-08T01:03:39;22.17;;;11.70;;
6205;SDS011;3136;48.788;9.772;2022-12-08T01:06:06;28.70;;;11.40;;
6205;SDS011;3136;48.788;9.772;2022-12-08T01:08:32;22.97;;;11.23;;
6205;SDS011;3136;48.788;9.772;2022-12-08T01:11:06;23.33;;;11.40;;
6205;SDS011;3136;48.788;9.772;2022-12-08T01:13:43;21.70;;;11.33;;
6205;SDS011;3136;48.788;9.772;2022-12-08T01:16:09;22.57;;;11.93;;
6205;SDS011;3136;48.788;9.772;2022-12-08T01:18:42;26.07;;;12.50;;
6205;SDS011;3136;48.788;9.772;2022-12-08T01:21:08;22.80;;;11.30;;
6205;SDS011;3136;48.788;9.772;2022-12-08T01:23:33;22.93;;;11.93;;
6205;SDS011;3136;48.788;9.772;2022-12-08T01:26:02;21.90;;;11.37;;
6205;SDS011;3136;48.788;9.772;2022-12-08T01:28:30;20.97;;;11.70;;
6205;SDS011;3136;48.788;9.772;2022-12-08T01:30:56;21.67;;;11.60;;
6205;SDS011;3136;48.788;9.772;2022-12-08T01:33:22;20.43;;;11.60;;
6205;SDS011;3136;48.788;9.772;2022-12-08T01:35:48;22.33;;;11.57;;
6205;SDS011;3136;48.788;9.772;2022-12-08T01:38:13;23.03;;;11.93;;
6205;SDS011;3136;48.788;9.772;2022-12-08T01:40:39;23.67;;;11.10;;
6205;SDS011;3136;48.788;9.772;2022-12-08T01:43:04;28.07;;;11.87;;
6205;SDS011;3136;48.788;9.772;2022-12-08T01:45:30;21.57;;;11.13;;
6205;SDS011;3136;48.788;9.772;2022-12-08T01:47:58;23.60;;;11.30;;
6205;SDS011;3136;48.788;9.772;2022-12-08T01:50:27;22.27;;;11.60;;
6205;SDS011;3136;48.788;9.772;2022-12-08T01:52:58;22.53;;;11.00;;
6205;SDS011;3136;48.788;9.772;2022-12-08T01:58:21;24.10;;;11.37;;
6205;SDS011;3136;48.788;9.772;2022-12-08T02:00:51;22.13;;;11.83;;
6205;SDS011;3136;48.788;9.772;2022-12-08T02:03:22;20.83;;;11.03;;
6205;SDS011;3136;48.788;9.772;2022-12-08T02:05:58;23.03;;;11.87;;
6205;SDS011;3136;48.788;9.772;2022-12-08T02:08:24;26.20;;;12.20;;
6205;SDS011;3136;48.788;9.772;2022-12-08T02:10:51;25.70;;;12.63;;
6205;SDS011;3136;48.788;9.772;2022-12-08T02:13:17;24.83;;;12.00;;
6205;SDS011;3136;48.788;9.772;2022-12-08T02:15:52;25.27;;;12.27;;
6205;SDS011;3136;48.788;9.772;2022-12-08T02:21:18;24.70;;;12.90;;
6205;SDS011;3136;48.788;9.772;2022-12-08T02:24:04;27.50;;;12.23;;
6205;SDS011;3136;48.788;9.772;2022-12-08T02:34:44;22.90;;;11.13;;
6205;SDS011;3136;48.788;9.772;2022-12-08T02:37:17;23.63;;;11.57;;
6205;SDS011;3136;48.788;9.772;2022-12-08T02:40:09;22.60;;;11.83;;
6205;SDS011;3136;48.788;9.772;2022-12-08T02:42:45;24.27;;;11.43;;
6205;SDS011;3136;48.788;9.772;2022-12-08T02:45:20;22.53;;;11.80;;
6205;SDS011;3136;48.788;9.772;2022-12-08T02:47:50;27.80;;;12.57;;
6205;SDS011;3136;48.788;9.772;2022-12-08T02:50:17;36.47;;;13.47;;
6205;SDS011;3136;48.788;9.772;2022-12-08T02:52:44;49.33;;;13.60;;
6205;SDS011;3136;48.788;9.772;2022-12-08T02:57:49;105.67;;;15.13;;
6205;SDS011;3136;48.788;9.772;2022-12-08T03:00:36;91.93;;;14.47;;
6205;SDS011;3136;48.788;9.772;2022-12-08T03:03:40;50.73;;;14.10;;
6205;SDS011;3136;48.788;9.772;2022-12-08T03:06:40;128.43;;;15.10;;
6205;SDS011;3136;48.788;9.772;2022-12-08T03:09:23;44.17;;;13.47;;
6205;SDS011;3136;48.788;9.772;2022-12-08T03:15:02;33.60;;;13.83;;
6205;SDS011;3136;48.788;9.772;2022-12-08T03:17:32;29.60;;;14.10;;
6205;SDS011;3136;48.788;9.772;2022-12-08T03:20:00;33.83;;;13.60;;
6205;SDS011;3136;48.788;9.772;2022-12-08T03:22:33;29.03;;;13.60;;
6205;SDS011;3136;48.788;9.772;2022-12-08T03:24:58;31.63;;;13.83;;
6205;SDS011;3136;48.788;9.772;2022-12-08T03:27:28;24.50;;;13.37;;
6205;SDS011;3136;48.788;9.772;2022-12-08T03:29:56;27.77;;;12.93;;
6205;SDS011;3136;48.788;9.772;2022-12-08T03:32:34;60.63;;;12.93;;
6205;SDS011;3136;48.788;9.772;2022-12-08T03:35:10;22.83;;;12.07;;
6205;SDS011;3136;48.788;9.772;2022-12-08T03:37:38;26.63;;;12.43;;
6205;SDS011;3136;48.788;9.772;2022-12-08T03:40:05;23.47;;;11.90;;
6205;SDS011;3136;48.788;9.772;2022-12-08T03:42:33;25.63;;;12.47;;
6205;SDS011;3136;48.788;9.772;2022-12-08T03:44:58;24.93;;;12.00;;
6205;SDS011;3136;48.788;9.772;2022-12-08T03:47:24;30.27;;;12.47;;
6205;SDS011;3136;48.788;9.772;2022-12-08T03:49:49;37.73;;;13.33;;
6205;SDS011;3136;48.788;9.772;2022-12-08T03:52:15;27.40;;;12.27;;
6205;SDS011;3136;48.788;9.772;2022-12-08T03:54:40;28.63;;;12.60;;
6205;SDS011;3136;48.788;9.772;2022-12-08T03:57:06;47.53;;;13.77;;
6205;SDS011;3136;48.788;9.772;2022-12-08T03:59:32;61.73;;;14.47;;
6205;SDS011;3136;48.788;9.772;2022-12-08T04:01:57;52.37;;;13.70;;
6205;SDS011;3136;48.788;9.772;2022-12-08T04:04:23;85.57;;;16.97;;
6205;SDS011;3136;48.788;9.772;2022-12-08T04:06:49;78.47;;;14.93;;
6205;SDS011;3136;48.788;9.772;2022-12-08T04:09:15;144.53;;;16.80;;
6205;SDS011;3136;48.788;9.772;2022-12-08T04:11:41;50.87;;;13.87;;
6205;SDS011;3136;48.788;9.772;2022-12-08T04:14:06;82.77;;;14.20;;
6205;SDS011;3136;48.788;9.772;2022-12-08T04:16:32;77.97;;;14.10;;
6205;SDS011;3136;48.788;9.772;2022-12-08T04:18:57;43.47;;;14.13;;
6205;SDS011;3136;48.788;9.772;2022-12-08T04:21:23;36.30;;;13.03;;
6205;SDS011;3136;48.788;9.772;2022-12-08T04:23:48;35.40;;;13.93;;
6205;SDS011;3136;48.788;9.772;2022-12-08T04:26:14;29.33;;;14.10;;
6205;SDS011;3136;48.788;9.772;2022-12-08T04:28:40;34.57;;;13.63;;
6205;SDS011;3136;48.788;9.772;2022-12-08T04:31:06;32.17;;;14.20;;
6205;SDS011;3136;48.788;9.772;2022-12-08T04:33:31;29.80;;;13.03;;
6205;SDS011;3136;48.788;9.772;2022-12-08T04:35:57;44.33;;;12.87;;
6205;SDS011;3136;48.788;9.772;2022-12-08T04:38:23;154.37;;;15.50;;
6205;SDS011;3136;48.788;9.772;2022-12-08T04:40:48;114.90;;;16.37;;
6205;SDS011;3136;48.788;9.772;2022-12-08T04:43:14;37.13;;;13.53;;
6205;SDS011;3136;48.788;9.772;2022-12-08T04:45:40;75.90;;;14.10;;
6205;SDS011;3136;48.788;9.772;2022-12-08T04:48:06;74.93;;;13.70;;
6205;SDS011;3136;48.788;9.772;2022-12-08T04:50:32;126.57;;;14.40;;
6205;SDS011;3136;48.788;9.772;2022-12-08T04:52:58;108.10;;;14.97;;
6205;SDS011;3136;48.788;9.772;2022-12-08T04:55:24;84.07;;;13.63;;
6205;SDS011;3136;48.788;9.772;2022-12-08T04:57:49;59.50;;;14.00;;
6205;SDS011;3136;48.788;9.772;2022-12-08T05:00:15;34.97;;;12.27;;
6205;SDS011;3136;48.788;9.772;2022-12-08T05:02:41;50.50;;;13.27;;
6205;SDS011;3136;48.788;9.772;2022-12-08T05:05:06;32.17;;;12.80;;
6205;SDS011;3136;48.788;9.772;2022-12-08T05:07:32;50.90;;;14.43;;
6205;SDS011;3136;48.788;9.772;2022-12-08T05:09:58;162.27;;;15.50;;
6205;SDS011;3136;48.788;9.772;2022-12-08T05:12:23;45.27;;;13.70;;
6205;SDS011;3136;48.788;9.772;2022-12-08T05:14:49;86.57;;;14.37;;
6205;SDS011;3136;48.788;9.772;2022-12-08T05:17:16;73.43;;;13.97;;
6205;SDS011;3136;48.788;9.772;2022-12-08T05:19:42;25.90;;;12.00;;
6205;SDS011;3136;48.788;9.772;2022-12-08T05:22:08;25.73;;;12.30;;
6205;SDS011;3136;48.788;9.772;2022-12-08T05:24:33;30.20;;;13.37;;
6205;SDS011;3136;48.788;9.772;2022-12-08T05:26:59;31.00;;;14.37;;
6205;SDS011;3136;48.788;9.772;2022-12-08T05:29:24;34.37;;;14.70;;
6205;SDS011;3136;48.788;9.772;2022-12-08T05:31:50;37.70;;;16.77;;
6205;SDS011;3136;48.788;9.772;2022-12-08T05:34:16;42.73;;;16.67;;
6205;SDS011;3136;48.788;9.772;2022-12-08T05:36:41;36.37;;;14.97;;
6205;SDS011;3136;48.788;9.772;2022-12-08T05:39:08;33.93;;;15.03;;
6205;SDS011;3136;48.788;9.772;2022-12-08T05:41:37;45.23;;;15.70;;
6205;SDS011;3136;48.788;9.772;2022-12-08T05:44:02;43.83;;;14.70;;
6205;SDS011;3136;48.788;9.772;2022-12-08T05:46:28;52.30;;;16.07;;
6205;SDS011;3136;48.788;9.772;2022-12-08T05:48:53;49.50;;;15.90;;
6205;SDS011;3136;48.788;9.772;2022-12-08T05:51:20;41.17;;;15.67;;
6205;SDS011;3136;48.788;9.772;2022-12-08T05:53:47;58.57;;;16.17;;
6205;SDS011;3136;48.788;9.772;2022-12-08T05:56:14;125.20;;;16.57;;
6205;SDS011;3136;48.788;9.772;2022-12-08T05:58:40;77.13;;;17.37;;
6205;SDS011;3136;48.788;9.772;2022-12-08T06:01:06;112.07;;;16.60;;
6205;SDS011;3136;48.788;9.772;2022-12-08T06:03:32;95.50;;;16.97;;
6205;SDS011;3136;48.788;9.772;2022-12-08T06:05:58;105.53;;;16.77;;
6205;SDS011;3136;48.788;9.772;2022-12-08T06:08:23;92.43;;;16.50;;
6205;SDS011;3136;48.788;9.772;2022-12-08T06:10:49;60.77;;;15.20;;
6205;SDS011;3136;48.788;9.772;2022-12-08T06:13:14;181.73;;;18.00;;
6205;SDS011;3136;48.788;9.772;2022-12-08T06:15:40;103.93;;;16.93;;
6205;SDS011;3136;48.788;9.772;2022-12-08T06:18:06;95.60;;;18.23;;
6205;SDS011;3136;48.788;9.772;2022-12-08T06:20:33;96.63;;;17.73;;
6205;SDS011;3136;48.788;9.772;2022-12-08T06:22:59;66.23;;;17.37;;
6205;SDS011;3136;48.788;9.772;2022-12-08T06:25:24;113.97;;;18.60;;
6205;SDS011;3136;48.788;9.772;2022-12-08T06:27:50;94.73;;;18.00;;
6205;SDS011;3136;48.788;9.772;2022-12-08T06:30:16;36.43;;;15.77;;
6205;SDS011;3136;48.788;9.772;2022-12-08T06:32:42;32.37;;;14.50;;
6205;SDS011;3136;48.788;9.772;2022-12-08T06:35:08;28.47;;;14.43;;
6205;SDS011;3136;48.788;9.772;2022-12-08T06:37:34;29.10;;;13.63;;
6205;SDS011;3136;48.788;9.772;2022-12-08T06:40:00;24.17;;;12.93;;
6205;SDS011;3136;48.788;9.772;2022-12-08T06:42:26;49.53;;;16.50;;
6205;SDS011;3136;48.788;9.772;2022-12-08T06:45:15;55.27;;;16.77;;
6205;SDS011;3136;48.788;9.772;2022-12-08T06:47:41;71.23;;;17.70;;
6205;SDS011;3136;48.788;9.772;2022-12-08T06:50:07;98.57;;;18.03;;
6205;SDS011;3136;48.788;9.772;2022-12-08T06:52:35;148.90;;;17.60;;
6205;SDS011;3136;48.788;9.772;2022-12-08T06:55:01;104.73;;;17.47;;
6205;SDS011;3136;48.788;9.772;2022-12-08T06:57:26;103.90;;;16.70;;
6205;SDS011;3136;48.788;9.772;2022-12-08T06:59:52;93.97;;;18.03;;
6205;SDS011;3136;48.788;9.772;2022-12-08T07:02:17;61.67;;;17.50;;
6205;SDS011;3136;48.788;9.772;2022-12-08T07:04:43;52.93;;;17.57;;
6205;SDS011;3136;48.788;9.772;2022-12-08T07:07:09;74.47;;;17.23;;
6205;SDS011;3136;48.788;9.772;2022-12-08T07:09:35;77.87;;;18.83;;
6205;SDS011;3136;48.788;9.772;2022-12-08T07:12:03;59.83;;;18.93;;
6205;SDS011;3136;48.788;9.772;2022-12-08T07:14:29;65.63;;;17.40;;
6205;SDS011;3136;48.788;9.772;2022-12-08T07:16:54;37.10;;;16.13;;
6205;SDS011;3136;48.788;9.772;2022-12-08T07:19:20;47.80;;;15.60;;
6205;SDS011;3136;48.788;9.772;2022-12-08T07:21:46;44.37;;;17.03;;
6205;SDS011;3136;48.788;9.772;2022-12-08T07:24:11;36.00;;;16.00;;
6205;SDS011;3136;48.788;9.772;2022-12-08T07:26:37;42.93;;;17.97;;
6205;SDS011;3136;48.788;9.772;2022-12-08T07:29:03;30.47;;;13.53;;
6205;SDS011;3136;48.788;9.772;2022-12-08T07:31:29;35.23;;;13.67;;
6205;SDS011;3136;48.788;9.772;2022-12-08T07:33:55;32.63;;;14.47;;
6205;SDS011;3136;48.788;9.772;2022-12-08T07:36:21;24.07;;;11.90;;
6205;SDS011;3136;48.788;9.772;2022-12-08T07:38:48;26.40;;;13.30;;
6205;SDS011;3136;48.788;9.772;2022-12-08T07:41:18;27.57;;;13.77;;
6205;SDS011;3136;48.788;9.772;2022-12-08T07:43:45;23.97;;;11.73;;
6205;SDS011;3136;48.788;9.772;2022-12-08T07:46:11;25.37;;;12.00;;
6205;SDS011;3136;48.788;9.772;2022-12-08T07:48:38;29.53;;;13.13;;
6205;SDS011;3136;48.788;9.772;2022-12-08T07:51:03;28.27;;;13.00;;
6205;SDS011;3136;48.788;9.772;2022-12-08T07:53:30;27.43;;;11.37;;
6205;SDS011;3136;48.788;9.772;2022-12-08T07:55:56;22.77;;;10.80;;
6205;SDS011;3136;48.788;9.772;2022-12-08T07:58:22;18.73;;;9.93;;
6205;SDS011;3136;48.788;9.772;2022-12-08T08:00:48;20.83;;;10.27;;
6205;SDS011;3136;48.788;9.772;2022-12-08T08:03:14;26.57;;;12.43;;
6205;SDS011;3136;48.788;9.772;2022-12-08T08:05:39;26.27;;;13.63;;
6205;SDS011;3136;48.788;9.772;2022-12-08T08:08:05;27.30;;;13.73;;
6205;SDS011;3136;48.788;9.772;2022-12-08T08:10:30;30.50;;;15.27;;
6205;SDS011;3136;48.788;9.772;2022-12-08T08:12:59;34.97;;;16.77;;
6205;SDS011;3136;48.788;9.772;2022-12-08T08:15:25;38.40;;;15.90;;
6205;SDS011;3136;48.788;9.772;2022-12-08T08:17:51;29.90;;;14.70;;
6205;SDS011;3136;48.788;9.772;2022-12-08T08:20:17;28.63;;;14.67;;
6205;SDS011;3136;48.788;9.772;2022-12-08T08:22:44;33.23;;;16.53;;
6205;SDS011;3136;48.788;9.772;2022-12-08T08:25:13;34.63;;;16.37;;
6205;SDS011;3136;48.788;9.772;2022-12-08T08:27:40;35.90;;;18.17;;
6205;SDS011;3136;48.788;9.772;2022-12-08T08:30:06;36.17;;;17.67;;
6205;SDS011;3136;48.788;9.772;2022-12-08T08:32:34;42.53;;;17.53;;
6205;SDS011;3136;48.788;9.772;2022-12-08T08:35:00;33.10;;;18.07;;
6205;SDS011;3136;48.788;9.772;2022-12-08T08:37:25;43.03;;;19.20;;
6205;SDS011;3136;48.788;9.772;2022-12-08T08:39:51;39.97;;;18.50;;
6205;SDS011;3136;48.788;9.772;2022-12-08T08:42:17;37.23;;;19.00;;
6205;SDS011;3136;48.788;9.772;2022-12-08T08:44:42;37.00;;;19.73;;
6205;SDS011;3136;48.788;9.772;2022-12-08T08:47:08;37.60;;;19.80;;
6205;SDS011;3136;48.788;9.772;2022-12-08T08:49:34;40.33;;;18.33;;
6205;SDS011;3136;48.788;9.772;2022-12-08T08:51:59;36.97;;;17.63;;
6205;SDS011;3136;48.788;9.772;2022-12-08T08:54:26;34.83;;;17.40;;
6205;SDS011;3136;48.788;9.772;2022-12-08T08:56:52;34.67;;;17.10;;
6205;SDS011;3136;48.788;9.772;2022-12-08T08:59:18;33.03;;;17.13;;
6205;SDS011;3136;48.788;9.772;2022-12-08T09:01:43;30.27;;;17.30;;
6205;SDS011;3136;48.788;9.772;2022-12-08T09:04:09;28.33;;;16.23;;
6205;SDS011;3136;48.788;9.772;2022-12-08T09:06:35;33.47;;;16.93;;
6205;SDS011;3136;48.788;9.772;2022-12-08T09:09:00;30.10;;;17.07;;
6205;SDS011;3136;48.788;9.772;2022-12-08T09:11:26;37.17;;;18.77;;
6205;SDS011;3136;48.788;9.772;2022-12-08T09:13:52;32.73;;;17.10;;
6205;SDS011;3136;48.788;9.772;2022-12-08T09:16:18;32.37;;;16.73;;
6205;SDS011;3136;48.788;9.772;2022-12-08T09:18:45;37.10;;;17.77;;
6205;SDS011;3136;48.788;9.772;2022-12-08T09:21:13;34.57;;;17.57;;
6205;SDS011;3136;48.788;9.772;2022-12-08T09:23:44;39.13;;;17.63;;
6205;SDS011;3136;48.788;9.772;2022-12-08T09:26:09;33.83;;;18.33;;
6205;SDS011;3136;48.788;9.772;2022-12-08T09:28:35;37.53;;;20.27;;
6205;SDS011;3136;48.788;9.772;2022-12-08T09:31:01;43.83;;;21.73;;
6205;SDS011;3136;48.788;9.772;2022-12-08T09:33:26;37.10;;;20.10;;
6205;SDS011;3136;48.788;9.772;2022-12-08T09:35:52;32.27;;;18.77;;
6205;SDS011;3136;48.788;9.772;2022-12-08T09:38:17;23.37;;;14.10;;
6205;SDS011;3136;48.788;9.772;2022-12-08T09:40:52;20.07;;;13.50;;
6205;SDS011;3136;48.788;9.772;2022-12-08T09:43:24;14.40;;;10.73;;
6205;SDS011;3136;48.788;9.772;2022-12-08T09:46:09;15.27;;;10.20;;
6205;SDS011;3136;48.788;9.772;2022-12-08T09:48:38;12.50;;;9.20;;
6205;SDS011;3136;48.788;9.772;2022-12-08T09:51:08;15.13;;;10.10;;
6205;SDS011;3136;48.788;9.772;2022-12-08T09:53:41;12.10;;;8.80;;
6205;SDS011;3136;48.788;9.772;2022-12-08T09:56:16;15.43;;;9.33;;
6205;SDS011;3136;48.788;9.772;2022-12-08T09:58:52;13.40;;;8.40;;
6205;SDS011;3136;48.788;9.772;2022-12-08T10:01:25;9.43;;;7.97;;
6205;SDS011;3136;48.788;9.772;2022-12-08T10:03:53;10.53;;;7.73;;
6205;SDS011;3136;48.788;9.772;2022-12-08T10:06:32;11.17;;;8.30;;
6205;SDS011;3136;48.788;9.772;2022-12-08T10:14:39;11.97;;;9.47;;
6205;SDS011;3136;48.788;9.772;2022-12-08T10:20:00;20.97;;;12.40;;
6205;SDS011;3136;48.788;9.772;2022-12-08T10:22:34;18.53;;;12.97;;
6205;SDS011;3136;48.788;9.772;2022-12-08T10:25:03;26.47;;;17.83;;
6205;SDS011;3136;48.788;9.772;2022-12-08T10:27:35;11.17;;;8.20;;
6205;SDS011;3136;48.788;9.772;2022-12-08T10:30:02;12.53;;;8.47;;
6205;SDS011;3136;48.788;9.772;2022-12-08T10:32:37;13.20;;;8.03;;
6205;SDS011;3136;48.788;9.772;2022-12-08T10:37:32;8.47;;;6.40;;
6205;SDS011;3136;48.788;9.772;2022-12-08T10:40:04;10.07;;;6.47;;
6205;SDS011;3136;48.788;9.772;2022-12-08T10:42:47;9.50;;;6.37;;
6205;SDS011;3136;48.788;9.772;2022-12-08T10:47:47;10.00;;;6.90;;
6205;SDS011;3136;48.788;9.772;2022-12-08T10:50:32;8.87;;;6.27;;
6205;SDS011;3136;48.788;9.772;2022-12-08T10:55:38;8.67;;;6.10;;
6205;SDS011;3136;48.788;9.772;2022-12-08T10:58:21;12.03;;;6.47;;
6205;SDS011;3136;48.788;9.772;2022-12-08T11:03:45;10.50;;;5.90;;
6205;SDS011;3136;48.788;9.772;2022-12-08T11:08:45;8.43;;;5.70;;
6205;SDS011;3136;48.788;9.772;2022-12-08T11:11:16;7.77;;;5.37;;
6205;SDS011;3136;48.788;9.772;2022-12-08T11:13:43;6.80;;;5.20;;
6205;SDS011;3136;48.788;9.772;2022-12-08T11:16:11;6.67;;;4.87;;
6205;SDS011;3136;48.788;9.772;2022-12-08T11:18:40;6.80;;;5.20;;
6205;SDS011;3136;48.788;9.772;2022-12-08T11:21:13;6.87;;;5.10;;
6205;SDS011;3136;48.788;9.772;2022-12-08T11:23:42;8.73;;;5.53;;
6205;SDS011;3136;48.788;9.772;2022-12-08T11:28:52;5.70;;;4.37;;
6205;SDS011;3136;48.788;9.772;2022-12-08T11:31:31;6.80;;;4.53;;
6205;SDS011;3136;48.788;9.772;2022-12-08T11:34:00;5.83;;;4.77;;
6205;SDS011;3136;48.788;9.772;2022-12-08T11:36:27;7.73;;;4.57;;
6205;SDS011;3136;48.788;9.772;2022-12-08T11:38:56;8.63;;;5.60;;
6205;SDS011;3136;48.788;9.772;2022-12-08T11:41:41;12.33;;;5.07;;
6205;SDS011;3136;48.788;9.772;2022-12-08T11:46:50;8.13;;;5.60;;
6205;SDS011;3136;48.788;9.772;2022-12-08T11:49:21;6.10;;;5.27;;
6205;SDS011;3136;48.788;9.772;2022-12-08T11:54:25;8.53;;;5.00;;
6205;SDS011;3136;48.788;9.772;2022-12-08T11:56:55;5.87;;;4.17;;
6205;SDS011;3136;48.788;9.772;2022-12-08T11:59:35;8.43;;;4.90;;
6205;SDS011;3136;48.788;9.772;2022-12-08T12:02:07;4.20;;;3.50;;
6205;SDS011;3136;48.788;9.772;2022-12-08T12:05:26;6.90;;;4.80;;
6205;SDS011;3136;48.788;9.772;2022-12-08T12:11:32;6.63;;;4.27;;
6205;SDS011;3136;48.788;9.772;2022-12-08T12:17:06;5.33;;;4.10;;
6205;SDS011;3136;48.788;9.772;2022-12-08T12:19:54;6.23;;;4.10;;
6205;SDS011;3136;48.788;9.772;2022-12-08T12:22:26;8.33;;;4.50;;
6205;SDS011;3136;48.788;9.772;2022-12-08T12:24:58;6.70;;;4.80;;
6205;SDS011;3136;48.788;9.772;2022-12-08T12:27:26;7.57;;;5.10;;
6205;SDS011;3136;48.788;9.772;2022-12-08T12:29:57;6.40;;;4.73;;
6205;SDS011;3136;48.788;9.772;2022-12-08T12:32:26;6.87;;;4.60;;
6205;SDS011;3136;48.788;9.772;2022-12-08T12:35:12;6.37;;;4.60;;
6205;SDS011;3136;48.788;9.772;2022-12-08T12:38:00;6.00;;;4.10;;
6205;SDS011;3136;48.788;9.772;2022-12-08T12:40:51;6.90;;;4.53;;
6205;SDS011;3136;48.788;9.772;2022-12-08T12:43:27;5.07;;;4.40;;
6205;SDS011;3136;48.788;9.772;2022-12-08T12:48:49;5.07;;;3.50;;
6205;SDS011;3136;48.788;9.772;2022-12-08T12:54:18;5.00;;;3.60;;
6205;SDS011;3136;48.788;9.772;2022-12-08T12:56:54;6.70;;;4.37;;
6205;SDS011;3136;48.788;9.772;2022-12-08T12:59:46;5.20;;;3.30;;
6205;SDS011;3136;48.788;9.772;2022-12-08T13:04:50;4.43;;;3.33;;
6205;SDS011;3136;48.788;9.772;2022-12-08T13:07:21;5.30;;;3.80;;
6205;SDS011;3136;48.788;9.772;2022-12-08T13:09:54;6.37;;;3.70;;
6205;SDS011;3136;48.788;9.772;2022-12-08T13:12:42;6.30;;;3.93;;
6205;SDS011;3136;48.788;9.772;2022-12-08T13:15:14;5.30;;;3.63;;
6205;SDS011;3136;48.788;9.772;2022-12-08T13:17:44;5.47;;;3.93;;
6205;SDS011;3136;48.788;9.772;2022-12-08T13:20:19;6.30;;;3.80;;
6205;SDS011;3136;48.788;9.772;2022-12-08T13:30:57;7.43;;;4.13;;
6205;SDS011;3136;48.788;9.772;2022-12-08T13:33:28;7.70;;;4.20;;
6205;SDS011;3136;48.788;9.772;2022-12-08T13:36:09;7.10;;;4.40;;
6205;SDS011;3136;48.788;9.772;2022-12-08T13:38:42;7.77;;;5.03;;
6205;SDS011;3136;48.788;9.772;2022-12-08T13:41:15;8.20;;;5.10;;
6205;SDS011;3136;48.788;9.772;2022-12-08T13:44:00;8.33;;;6.00;;
6205;SDS011;3136;48.788;9.772;2022-12-08T13:46:35;14.20;;;9.47;;
6205;SDS011;3136;48.788;9.772;2022-12-08T13:49:05;13.53;;;7.63;;
6205;SDS011;3136;48.788;9.772;2022-12-08T13:51:38;17.57;;;10.90;;
6205;SDS011;3136;48.788;9.772;2022-12-08T13:56:34;11.90;;;8.17;;
6205;SDS011;3136;48.788;9.772;2022-12-08T13:59:06;10.53;;;7.00;;
6205;SDS011;3136;48.788;9.772;2022-12-08T14:01:33;8.53;;;5.07;;
6205;SDS011;3136;48.788;9.772;2022-12-08T14:04:24;9.77;;;5.87;;
6205;SDS011;3136;48.788;9.772;2022-12-08T14:06:55;13.20;;;6.50;;
6205;SDS011;3136;48.788;9.772;2022-12-08T14:09:32;11.30;;;8.10;;
6205;SDS011;3136;48.788;9.772;2022-12-08T14:12:02;7.03;;;5.23;;
6205;SDS011;3136;48.788;9.772;2022-12-08T14:17:00;9.70;;;6.97;;
6205;SDS011;3136;48.788;9.772;2022-12-08T14:19:29;12.20;;;7.37;;
6205;SDS011;3136;48.788;9.772;2022-12-08T14:22:15;8.90;;;4.80;;
6205;SDS011;3136;48.788;9.772;2022-12-08T14:24:45;5.97;;;4.20;;
6205;SDS011;3136;48.788;9.772;2022-12-08T14:27:13;6.87;;;4.53;;
6205;SDS011;3136;48.788;9.772;2022-12-08T14:32:27;10.03;;;7.10;;
6205;SDS011;3136;48.788;9.772;2022-12-08T14:37:30;11.63;;;7.70;;
6205;SDS011;3136;48.788;9.772;2022-12-08T14:39:59;11.70;;;6.40;;
6205;SDS011;3136;48.788;9.772;2022-12-08T14:42:28;13.70;;;8.10;;
6205;SDS011;3136;48.788;9.772;2022-12-08T14:44:58;9.50;;;6.33;;
6205;SDS011;3136;48.788;9.772;2022-12-08T14:47:33;9.57;;;5.97;;
6205;SDS011;3136;48.788;9.772;2022-12-08T14:49:59;12.80;;;6.73;;
6205;SDS011;3136;48.788;9.772;2022-12-08T14:52:25;9.20;;;5.60;;
6205;SDS011;3136;48.788;9.772;2022-12-08T14:54:52;8.70;;;5.73;;
6205;SDS011;3136;48.788;9.772;2022-12-08T14:57:18;12.70;;;5.43;;
6205;SDS011;3136;48.788;9.772;2022-12-08T14:59:44;7.73;;;5.20;;
6205;SDS011;3136;48.788;9.772;2022-12-08T15:04:40;8.53;;;5.10;;
6205;SDS011;3136;48.788;9.772;2022-12-08T15:07:17;10.83;;;6.00;;
6205;SDS011;3136;48.788;9.772;2022-12-08T15:10:34;12.73;;;6.90;;
6205;SDS011;3136;48.788;9.772;2022-12-08T15:12:34;11.53;;;7.30;;
6205;SDS011;3136;48.788;9.772;2022-12-08T15:15:10;15.73;;;8.90;;
6205;SDS011;3136;48.788;9.772;2022-12-08T15:17:42;15.00;;;7.40;;
6205;SDS011;3136;48.788;9.772;2022-12-08T15:22:52;7.77;;;5.13;;
6205;SDS011;3136;48.788;9.772;2022-12-08T15:25:18;8.80;;;5.07;;
6205;SDS011;3136;48.788;9.772;2022-12-08T15:27:44;8.13;;;5.60;;
6205;SDS011;3136;48.788;9.772;2022-12-08T15:30:13;11.83;;;6.47;;
6205;SDS011;3136;48.788;9.772;2022-12-08T15:32:40;10.03;;;5.10;;
6205;SDS011;3136;48.788;9.772;2022-12-08T15:35:07;11.80;;;7.57;;
6205;SDS011;3136;48.788;9.772;2022-12-08T15:37:36;11.07;;;6.27;;
6205;SDS011;3136;48.788;9.772;2022-12-08T15:40:02;9.10;;;6.20;;
6205;SDS011;3136;48.788;9.772;2022-12-08T15:42:28;8.13;;;5.87;;
6205;SDS011;3136;48.788;9.772;2022-12-08T15:44:54;7.97;;;5.60;;
6205;SDS011;3136;48.788;9.772;2022-12-08T15:47:20;8.27;;;6.07;;
6205;SDS011;3136;48.788;9.772;2022-12-08T15:49:47;8.27;;;6.30;;
6205;SDS011;3136;48.788;9.772;2022-12-08T15:52:15;9.27;;;6.03;;
6205;SDS011;3136;48.788;9.772;2022-12-08T15:54:45;6.90;;;4.73;;
6205;SDS011;3136;48.788;9.772;2022-12-08T15:57:22;8.37;;;5.30;;
6205;SDS011;3136;48.788;9.772;2022-12-08T15:59:48;9.50;;;5.50;;
6205;SDS011;3136;48.788;9.772;2022-12-08T16:02:15;10.23;;;5.70;;
6205;SDS011;3136;48.788;9.772;2022-12-08T16:04:41;9.67;;;6.13;;
6205;SDS011;3136;48.788;9.772;2022-12-08T16:07:13;9.40;;;6.20;;
6205;SDS011;3136;48.788;9.772;2022-12-08T16:09:45;8.00;;;5.50;;
6205;SDS011;3136;48.788;9.772;2022-12-08T16:12:15;9.27;;;4.97;;
6205;SDS011;3136;48.788;9.772;2022-12-08T16:15:01;14.10;;;8.23;;
6205;SDS011;3136;48.788;9.772;2022-12-08T16:17:27;12.77;;;7.43;;
6205;SDS011;3136;48.788;9.772;2022-12-08T16:19:53;10.37;;;7.07;;
6205;SDS011;3136;48.788;9.772;2022-12-08T16:22:20;12.00;;;5.93;;
6205;SDS011;3136;48.788;9.772;2022-12-08T16:24:50;8.37;;;5.40;;
6205;SDS011;3136;48.788;9.772;2022-12-08T16:27:23;9.17;;;5.50;;
6205;SDS011;3136;48.788;9.772;2022-12-08T16:29:58;9.47;;;5.50;;
6205;SDS011;3136;48.788;9.772;2022-12-08T16:32:24;8.87;;;5.47;;
6205;SDS011;3136;48.788;9.772;2022-12-08T16:34:51;9.17;;;5.40;;
6205;SDS011;3136;48.788;9.772;2022-12-08T16:37:20;8.77;;;5.17;;
6205;SDS011;3136;48.788;9.772;2022-12-08T16:39:47;10.50;;;5.83;;